Aviation Digital Data Service (ADDS)

Output produced by METARs form (1744 UTC 24 June 2019)
found at http://www.aviationweather.gov/metar/data/
 
Forecast for: OPDG (DERA GHAZI , PK)
Text: TAF OPDG 241600Z 2418/2512 05005KT 5000 FU FEW040 SCT120 TN27/2501Z TX39/2510
Forecast period: 1800 UTC 24 June 2019 to 1200 UTC 25 June 2019
Forecast type: FROM: standard forecast or significant change
Winds: from the NE (50 degrees) at 6 MPH (5 knots; 2.6 m/s)
Visibility: 3 miles (5 km)
Ceiling: at least 12,000 feet AGL
Clouds: few clouds at 4000 feet AGL
scattered clouds at 12000 feet AGL
Weather: FU  (smoke)
Text: PROB30 2418/2422 36025KT 2000 -TSRA FEW030CB SCT040 BKN100
Forecast period: 1800 to 2200 UTC 24 June 2019
Forecast type: PROBABLE: 30 percent likelihood of the following during this time
Winds: from the N (360 degrees) at 29 MPH (25 knots; 12.9 m/s)
Visibility: 1.24 miles (2.00 km)
Ceiling: 10000 feet AGL
Clouds: few clouds at 3000 feet AGL
scattered clouds at 4000 feet AGL
broken clouds at 10000 feet AGL
Weather: -TSRA  (light rain associated with thunderstorm(s))